createdAt,value
2023-07-29T00:00:29.185Z,17.27
2023-07-29T00:05:54.735Z,17.27
2023-07-29T00:11:00.189Z,17.30
2023-07-29T00:16:06.018Z,17.36
2023-07-29T00:21:11.960Z,17.37
2023-07-29T00:26:17.825Z,17.29
2023-07-29T00:31:23.396Z,17.19
2023-07-29T00:36:30.321Z,17.12
2023-07-29T00:41:35.991Z,17.07
2023-07-29T00:46:43.487Z,17.04
2023-07-29T00:51:49.225Z,16.98
2023-07-29T00:56:54.940Z,16.87
2023-07-29T01:02:01.020Z,16.73
2023-07-29T01:07:15.545Z,16.60
2023-07-29T01:12:25.528Z,16.49
2023-07-29T01:17:35.093Z,16.33
2023-07-29T01:22:41.309Z,16.21
2023-07-29T01:27:48.382Z,16.12
2023-07-29T01:33:01.172Z,15.99
2023-07-29T01:38:11.199Z,16.00
2023-07-29T01:43:17.067Z,16.03
2023-07-29T01:48:22.810Z,15.93
2023-07-29T01:53:29.534Z,15.75
2023-07-29T01:58:35.204Z,15.70
2023-07-29T02:03:40.735Z,15.68
2023-07-29T02:08:46.254Z,15.65
2023-07-29T02:13:52.024Z,15.77
2023-07-29T02:18:57.661Z,15.93
2023-07-29T02:24:03.226Z,16.02
2023-07-29T02:29:08.950Z,15.95
2023-07-29T02:34:15.049Z,15.82
2023-07-29T02:39:21.110Z,15.64
2023-07-29T02:44:27.559Z,15.52
2023-07-29T02:49:33.289Z,15.49
2023-07-29T02:54:38.847Z,15.42
2023-07-29T02:59:45.034Z,15.28
2023-07-29T03:04:51.553Z,15.14
2023-07-29T03:09:57.126Z,15.05
2023-07-29T03:15:03.190Z,15.08
2023-07-29T03:20:11.132Z,15.07
2023-07-29T03:25:17.566Z,14.95
2023-07-29T03:30:23.543Z,14.80
2023-07-29T03:35:29.887Z,14.74
2023-07-29T03:40:35.610Z,14.73
2023-07-29T03:45:41.959Z,14.74
2023-07-29T03:50:47.492Z,14.78
2023-07-29T03:55:52.977Z,14.83
2023-07-29T04:00:58.417Z,14.95
2023-07-29T04:06:04.112Z,15.17
2023-07-29T04:11:10.321Z,15.40
2023-07-29T04:16:15.957Z,15.71
2023-07-29T04:21:21.657Z,15.96
2023-07-29T04:26:27.042Z,16.25
2023-07-29T04:31:32.893Z,16.51
2023-07-29T04:36:38.652Z,16.77
2023-07-29T04:41:44.785Z,16.97
2023-07-29T04:46:50.332Z,17.13
2023-07-29T04:51:55.808Z,17.21
2023-07-29T04:57:01.530Z,17.47
2023-07-29T05:02:07.905Z,17.66
2023-07-29T05:07:13.886Z,17.68
2023-07-29T05:12:19.499Z,17.83
2023-07-29T05:17:25.411Z,17.99
2023-07-29T05:22:31.817Z,18.05
2023-07-29T05:27:37.393Z,18.04
2023-07-29T05:32:42.976Z,18.07
2023-07-29T05:37:48.904Z,18.18
2023-07-29T05:42:54.672Z,18.53
2023-07-29T05:48:00.747Z,19.05
2023-07-29T05:53:07.091Z,19.47
2023-07-29T05:58:13.579Z,19.92
2023-07-29T06:03:19.760Z,20.27
2023-07-29T06:08:29.367Z,22.01
2023-07-29T06:13:35.137Z,26.18
2023-07-29T06:18:40.861Z,29.62
2023-07-29T06:23:46.823Z,31.74
2023-07-29T06:28:54.228Z,33.40
2023-07-29T06:34:06.084Z,35.17
2023-07-29T06:39:12.411Z,36.39
2023-07-29T06:44:18.128Z,36.75
2023-07-29T06:49:24.686Z,37.19
2023-07-29T06:54:31.149Z,38.18
2023-07-29T06:59:41.478Z,38.70
2023-07-29T07:04:46.918Z,38.94
2023-07-29T07:09:52.332Z,38.91
2023-07-29T07:14:58.101Z,38.47
2023-07-29T07:20:04.582Z,36.99
2023-07-29T07:25:09.449Z,37.67
2023-07-29T07:30:15.632Z,38.50
2023-07-29T07:35:20.026Z,38.86
2023-07-29T07:40:25.753Z,39.48
2023-07-29T07:45:32.925Z,38.32
2023-07-29T07:50:38.552Z,35.45
2023-07-29T07:55:44.205Z,32.49
2023-07-29T08:00:49.882Z,33.14
2023-07-29T08:05:57.981Z,34.80
2023-07-29T08:11:03.725Z,36.48
2023-07-29T08:16:09.531Z,35.07
2023-07-29T08:21:16.865Z,32.90
2023-07-29T08:26:22.711Z,31.76
2023-07-29T08:31:35.663Z,30.80
2023-07-29T08:36:58.268Z,32.20
2023-07-29T08:42:07.995Z,34.29
2023-07-29T08:47:16.035Z,35.95
2023-07-29T08:52:26.306Z,36.90
2023-07-29T08:57:34.655Z,35.35
2023-07-29T09:02:42.626Z,34.38
2023-07-29T09:07:54.978Z,34.79
2023-07-29T09:13:07.120Z,36.19
2023-07-29T09:18:16.745Z,36.85
2023-07-29T09:23:22.360Z,36.99
2023-07-29T09:28:33.140Z,34.92
2023-07-29T09:33:38.893Z,32.87
2023-07-29T09:38:45.929Z,31.45
2023-07-29T09:43:59.348Z,32.37
2023-07-29T09:49:07.061Z,33.75
2023-07-29T09:54:14.736Z,34.01
2023-07-29T09:59:25.740Z,34.25
2023-07-29T10:04:32.325Z,35.31
2023-07-29T10:09:40.377Z,36.03
2023-07-29T10:14:49.271Z,36.39
2023-07-29T10:19:58.119Z,37.07
2023-07-29T10:25:08.521Z,37.23
2023-07-29T10:30:17.331Z,36.10
2023-07-29T10:35:23.144Z,35.43
2023-07-29T10:40:44.248Z,35.74
2023-07-29T10:45:54.045Z,35.39
2023-07-29T10:51:34.038Z,35.15
2023-07-29T10:56:43.889Z,35.59
2023-07-29T11:01:59.426Z,36.12
2023-07-29T11:07:27.652Z,36.35
2023-07-29T11:12:55.459Z,36.23
2023-07-29T11:18:03.448Z,36.37
2023-07-29T11:23:09.933Z,36.41
2023-07-29T11:28:16.437Z,36.39
2023-07-29T11:33:23.584Z,36.33
2023-07-29T11:38:32.147Z,36.01
2023-07-29T11:43:40.392Z,35.56
2023-07-29T11:48:45.512Z,35.21
2023-07-29T11:53:52.184Z,34.08
2023-07-29T11:58:57.943Z,32.85
2023-07-29T12:04:03.724Z,32.69
2023-07-29T12:09:10.328Z,32.85
2023-07-29T12:14:17.377Z,33.11
2023-07-29T12:19:23.594Z,33.04
2023-07-29T12:24:30.640Z,32.81
2023-07-29T12:29:43.200Z,32.97
2023-07-29T12:34:49.029Z,32.92
2023-07-29T12:39:54.523Z,32.59
2023-07-29T12:45:00.038Z,32.45
2023-07-29T12:50:07.461Z,32.49
2023-07-29T12:55:15.976Z,32.71
2023-07-29T13:00:21.627Z,32.31
2023-07-29T13:05:27.440Z,32.50
2023-07-29T13:10:33.108Z,32.58
2023-07-29T13:15:38.626Z,32.36
2023-07-29T13:20:44.125Z,32.47
2023-07-29T13:25:49.853Z,32.19
2023-07-29T13:30:55.546Z,32.04
2023-07-29T13:36:01.235Z,31.73
2023-07-29T13:41:07.568Z,31.29
2023-07-29T13:46:16.169Z,31.23
2023-07-29T13:51:23.059Z,30.99
2023-07-29T13:56:31.272Z,30.31
2023-07-29T14:01:39.421Z,29.88
2023-07-29T14:06:48.772Z,29.58
2023-07-29T14:11:56.758Z,29.26
2023-07-29T14:17:02.945Z,28.95
2023-07-29T14:22:09.274Z,28.57
2023-07-29T14:27:17.463Z,28.30
2023-07-29T14:32:25.634Z,27.88
2023-07-29T14:37:33.242Z,27.50
2023-07-29T14:42:38.910Z,27.32
2023-07-29T14:47:44.627Z,27.32
2023-07-29T14:52:50.427Z,27.26
2023-07-29T14:57:56.102Z,27.19
2023-07-29T15:03:01.965Z,27.18
2023-07-29T15:08:09.087Z,27.13
2023-07-29T15:13:15.593Z,27.09
2023-07-29T15:18:21.227Z,27.03
2023-07-29T15:23:27.014Z,26.90
2023-07-29T15:28:34.344Z,26.85
2023-07-29T15:33:41.411Z,26.83
2023-07-29T15:38:49.866Z,26.76
2023-07-29T15:43:55.743Z,26.70
2023-07-29T15:49:01.592Z,26.71
2023-07-29T15:54:08.382Z,26.81
2023-07-29T15:59:14.183Z,26.90
2023-07-29T16:04:20.153Z,26.90
2023-07-29T16:09:25.700Z,26.84
2023-07-29T16:14:32.801Z,26.77
2023-07-29T16:19:55.899Z,26.78
2023-07-29T16:25:01.982Z,26.83
2023-07-29T16:30:09.772Z,26.84
2023-07-29T16:35:15.553Z,26.86
2023-07-29T16:40:21.610Z,26.84
2023-07-29T16:45:31.667Z,26.79
2023-07-29T16:50:36.331Z,26.70
2023-07-29T16:55:42.620Z,26.49
2023-07-29T17:00:48.327Z,26.26
2023-07-29T17:05:57.109Z,26.06
2023-07-29T17:11:03.389Z,25.85
2023-07-29T17:16:09.741Z,25.66
2023-07-29T17:21:15.441Z,25.52
2023-07-29T17:26:21.084Z,25.35
2023-07-29T17:31:27.187Z,25.14
2023-07-29T17:36:33.066Z,25.03
2023-07-29T17:41:39.105Z,24.91
2023-07-29T17:46:45.459Z,24.78
2023-07-29T17:51:51.409Z,24.62
2023-07-29T17:56:57.005Z,24.46
2023-07-29T18:02:02.892Z,24.29
2023-07-29T18:07:09.879Z,24.12
2023-07-29T18:12:16.196Z,23.96
2023-07-29T18:17:21.947Z,23.80
2023-07-29T18:22:28.144Z,23.54
2023-07-29T18:27:33.865Z,23.33
2023-07-29T18:32:39.590Z,23.09
2023-07-29T18:37:45.630Z,22.83
2023-07-29T18:42:51.406Z,22.55
2023-07-29T18:47:57.355Z,22.49
2023-07-29T18:53:03.019Z,22.42
2023-07-29T18:58:08.654Z,22.31
2023-07-29T19:03:15.372Z,22.12
2023-07-29T19:08:20.881Z,21.94
2023-07-29T19:13:26.557Z,21.88
2023-07-29T19:18:32.440Z,21.75
2023-07-29T19:23:38.247Z,21.65
2023-07-29T19:28:44.515Z,21.52
2023-07-29T19:33:50.231Z,21.50
2023-07-29T19:38:55.761Z,21.48
2023-07-29T19:44:16.646Z,21.48
2023-07-29T19:49:27.091Z,21.52
2023-07-29T19:54:32.759Z,21.60
2023-07-29T19:59:48.693Z,21.64
2023-07-29T20:04:56.142Z,21.66
2023-07-29T20:10:01.852Z,21.63
2023-07-29T20:15:09.179Z,21.54
2023-07-29T20:20:14.943Z,21.51
2023-07-29T20:25:20.724Z,21.51
2023-07-29T20:30:26.344Z,21.51
2023-07-29T20:35:31.852Z,21.49
2023-07-29T20:40:37.543Z,21.46
2023-07-29T20:45:43.209Z,21.44
2023-07-29T20:50:48.706Z,21.46
2023-07-29T20:55:54.630Z,21.49
2023-07-29T21:01:00.430Z,21.50
2023-07-29T21:06:10.105Z,21.48
2023-07-29T21:11:15.667Z,21.46
2023-07-29T21:16:21.658Z,21.48
2023-07-29T21:21:29.880Z,21.47
2023-07-29T21:26:36.473Z,20.74
2023-07-29T21:31:42.507Z,20.12
2023-07-29T21:36:48.461Z,19.80
2023-07-29T21:41:53.929Z,19.60
2023-07-29T21:46:59.671Z,19.45
2023-07-29T21:52:05.943Z,19.33
2023-07-29T21:57:11.474Z,19.25
2023-07-29T22:02:19.996Z,19.12
2023-07-29T22:07:25.787Z,18.99
2023-07-29T22:12:32.577Z,18.90
2023-07-29T22:17:38.229Z,18.87
2023-07-29T22:22:44.100Z,18.82
2023-07-29T22:27:49.736Z,18.74
2023-07-29T22:32:55.577Z,18.72
2023-07-29T22:38:01.248Z,18.68
2023-07-29T22:43:06.968Z,18.63
2023-07-29T22:48:12.593Z,18.58
2023-07-29T22:53:18.852Z,18.51
2023-07-29T22:58:25.092Z,18.52
2023-07-29T23:03:30.732Z,18.52
2023-07-29T23:08:36.532Z,18.50
2023-07-29T23:13:42.573Z,18.45
2023-07-29T23:18:48.208Z,18.44
2023-07-29T23:23:53.803Z,18.43
2023-07-29T23:28:59.448Z,18.37
2023-07-29T23:34:05.053Z,18.19
2023-07-29T23:39:10.680Z,18.07
2023-07-29T23:44:16.198Z,18.04
2023-07-29T23:49:22.024Z,18.06
2023-07-29T23:54:27.642Z,18.09
2023-07-29T23:59:33.322Z,18.14
